Time;durP1;ratioP1;P1;durP2;ratioP2;P2;SDS_P1;SDS_P2;PMS_P1;PMS_P2;Temp;Humidity;BMP_temperature;BMP_pressure;BME280_temperature;BME280_humidity;BME280_pressure;Samples;Min_cycle;Max_cycle;Signal;HPM_P1;HPM_P2
2024/03/28 00:02:30;;;;;;;11.10;5.30;;;;;;;9.86;51.76;97191.82;105695;1256;98064;-79
2024/03/28 00:04:57;;;;;;;9.60;5.30;;;;;;;9.84;51.78;97187.66;105757;1256;97968;-77
2024/03/28 00:07:25;;;;;;;11.90;5.80;;;;;;;9.84;51.94;97182.00;105780;1253;109787;-78
2024/03/28 00:09:52;;;;;;;10.00;5.50;;;;;;;9.84;51.74;97184.44;105867;1259;99791;-77
2024/03/28 00:12:18;;;;;;;13.60;6.10;;;;;;;9.84;51.91;97179.45;105681;1253;99616;-78
2024/03/28 00:14:44;;;;;;;11.40;5.70;;;;;;;9.84;52.06;97176.86;105901;1254;97977;-78
2024/03/28 00:17:11;;;;;;;;;;;;;;;9.84;51.96;97176.14;105784;1256;112712;-78
2024/03/28 00:19:37;;;;;;;9.00;5.20;;;;;;;9.82;52.03;97172.77;105535;1256;97936;-77
2024/03/28 00:22:04;;;;;;;9.90;5.40;;;;;;;9.81;52.11;97173.23;105429;1256;98578;-78
2024/03/28 00:24:31;;;;;;;10.90;5.40;;;;;;;9.81;52.10;97170.80;106067;1256;97907;-78
2024/03/28 00:26:57;;;;;;;9.60;5.10;;;;;;;9.79;52.14;97169.52;105578;1253;98625;-78
2024/03/28 00:29:24;;;;;;;8.90;5.10;;;;;;;9.76;52.11;97167.23;105720;1256;98015;-77
2024/03/28 00:31:50;;;;;;;11.50;5.70;;;;;;;9.73;52.17;97165.52;105586;1251;98082;-77
2024/03/28 00:34:17;;;;;;;10.00;5.20;;;;;;;9.71;52.22;97161.90;105485;1264;97968;-79
2024/03/28 00:36:43;;;;;;;10.60;6.00;;;;;;;9.70;52.32;97162.81;105599;1258;97990;-78
2024/03/28 00:39:10;;;;;;;11.00;6.10;;;;;;;9.69;52.30;97160.48;105725;1253;98043;-78
2024/03/28 00:41:36;;;;;;;10.60;6.60;;;;;;;9.67;52.46;97158.11;106046;1264;106624;-78
2024/03/28 00:44:03;;;;;;;11.00;6.40;;;;;;;9.65;52.51;97158.84;106256;1256;98051;-78
2024/03/28 00:46:30;;;;;;;12.40;6.20;;;;;;;9.63;52.53;97152.70;107088;1251;97881;-80
2024/03/28 00:48:56;;;;;;;10.40;5.50;;;;;;;9.61;52.53;97151.52;106025;1256;97968;-78
2024/03/28 00:51:23;;;;;;;14.70;6.80;;;;;;;9.59;52.58;97147.13;105728;1253;97914;-78
2024/03/28 00:53:49;;;;;;;12.20;7.60;;;;;;;9.54;52.52;97143.14;105838;1254;97963;-78
2024/03/28 00:56:16;;;;;;;13.30;6.80;;;;;;;9.49;52.56;97138.21;105749;1253;98116;-78
2024/03/28 00:58:42;;;;;;;10.10;5.70;;;;;;;9.44;52.66;97137.63;105611;1257;99295;-77
2024/03/28 01:01:09;;;;;;;10.10;5.60;;;;;;;9.38;52.72;97132.81;106215;1256;98790;-79
2024/03/28 01:03:35;;;;;;;10.30;6.40;;;;;;;9.34;52.81;97130.75;105927;1255;97981;-78
2024/03/28 01:06:04;;;;;;;10.40;5.80;;;;;;;9.28;52.75;97123.65;105744;1256;97921;-78
2024/03/28 01:08:31;;;;;;;9.30;6.20;;;;;;;9.21;52.78;97115.41;105482;1254;109691;-79
2024/03/28 01:10:57;;;;;;;9.10;5.20;;;;;;;9.15;52.90;97108.23;105554;1251;98142;-78
2024/03/28 01:13:23;;;;;;;8.40;5.50;;;;;;;9.13;53.13;97099.75;105672;1254;97929;-80
2024/03/28 01:15:50;;;;;;;9.30;5.00;;;;;;;9.12;53.12;97091.87;105837;1264;98860;-78
2024/03/28 01:18:16;;;;;;;9.50;5.80;;;;;;;9.12;53.13;97086.28;106375;1251;111444;-79
2024/03/28 01:20:43;;;;;;;10.80;5.90;;;;;;;9.11;52.95;97084.09;106339;1251;98424;-79
2024/03/28 01:23:09;;;;;;;;;;;;;;;9.10;53.18;97085.58;105659;1256;99308;-78
2024/03/28 01:25:36;;;;;;;10.00;5.50;;;;;;;9.08;53.26;97089.80;105853;1252;97974;-78
2024/03/28 01:28:02;;;;;;;7.40;5.20;;;;;;;9.10;53.27;97094.39;105598;1264;110712;-78
2024/03/28 01:30:29;;;;;;;8.90;5.60;;;;;;;9.12;53.33;97092.84;105528;1256;98029;-79
2024/03/28 01:32:55;;;;;;;9.80;5.50;;;;;;;9.15;53.51;97093.35;105833;1254;97967;-79
2024/03/28 01:35:22;;;;;;;9.80;5.40;;;;;;;9.18;53.48;97097.66;105756;1256;99292;-79
2024/03/28 01:37:48;;;;;;;9.50;4.80;;;;;;;9.25;53.45;97101.41;106336;1256;98765;-79
2024/03/28 01:40:15;;;;;;;9.50;5.30;;;;;;;9.28;53.60;97096.86;106389;1256;98047;-79
2024/03/28 01:42:41;;;;;;;9.10;5.40;;;;;;;9.22;53.56;97093.70;105707;1251;98444;-78
2024/03/28 01:45:08;;;;;;;12.20;6.10;;;;;;;9.16;53.56;97091.70;105942;1265;99226;-79
2024/03/28 01:47:36;;;;;;;14.10;6.50;;;;;;;9.08;53.59;97093.73;105766;1256;97962;-78
2024/03/28 01:50:08;;;;;;;14.00;6.90;;;;;;;9.02;53.61;97092.02;105802;1253;108988;-78
2024/03/28 01:52:35;;;;;;;10.10;7.10;;;;;;;8.96;53.59;97097.65;105741;1253;97969;-78
2024/03/28 01:55:02;;;;;;;11.50;6.40;;;;;;;8.93;53.89;97105.78;105754;1253;98591;-78
2024/03/28 01:57:28;;;;;;;11.20;5.90;;;;;;;8.90;53.93;97100.69;106777;1255;97935;-78
2024/03/28 01:59:56;;;;;;;14.00;5.90;;;;;;;8.93;53.92;97106.14;105461;1256;97974;-78
2024/03/28 02:02:24;;;;;;;10.20;5.80;;;;;;;8.97;54.05;97104.73;105654;1256;97974;-78
2024/03/28 02:04:50;;;;;;;11.00;5.60;;;;;;;9.02;54.06;97099.80;105572;1253;97949;-79
2024/03/28 02:07:17;;;;;;;10.60;5.60;;;;;;;9.06;54.04;97094.64;105451;1256;97958;-78
2024/03/28 02:09:43;;;;;;;8.30;4.80;;;;;;;9.10;54.05;97091.96;105782;1256;97985;-79
2024/03/28 02:12:10;;;;;;;10.70;5.40;;;;;;;9.13;54.08;97081.08;105402;1253;111292;-78
2024/03/28 02:14:39;;;;;;;9.50;5.30;;;;;;;9.14;54.09;97080.40;107421;1251;97878;-78
2024/03/28 02:17:06;;;;;;;9.40;5.50;;;;;;;9.15;54.24;97083.66;106058;1255;98068;-78
2024/03/28 02:19:34;;;;;;;10.50;4.70;;;;;;;9.16;54.17;97085.63;105657;1256;97974;-78
2024/03/28 02:22:01;;;;;;;7.80;5.20;;;;;;;9.19;54.36;97086.99;105814;1254;99156;-78
2024/03/28 02:24:29;;;;;;;9.90;5.80;;;;;;;9.21;54.28;97087.81;105685;1255;97974;-79
2024/03/28 02:26:56;;;;;;;10.40;5.30;;;;;;;9.22;54.36;97088.39;105776;1251;98059;-78
2024/03/28 02:29:23;;;;;;;9.60;5.30;;;;;;;9.24;54.39;97088.73;105519;1258;98043;-78
2024/03/28 02:31:50;;;;;;;10.10;4.90;;;;;;;9.25;54.51;97086.59;105660;1254;97876;-79
2024/03/28 02:34:16;;;;;;;9.50;5.60;;;;;;;9.24;54.58;97086.98;106301;1253;97876;-80
2024/03/28 02:36:43;;;;;;;10.40;5.20;;;;;;;9.24;54.50;97089.34;105994;1256;97893;-79
2024/03/28 02:39:10;;;;;;;12.30;6.60;;;;;;;9.24;54.80;97092.52;105627;1256;106748;-78
2024/03/28 02:41:37;;;;;;;10.80;6.00;;;;;;;9.23;54.71;97089.36;105777;1256;98039;-80
2024/03/28 02:44:04;;;;;;;11.00;6.50;;;;;;;9.22;54.76;97088.75;105779;1256;98093;-79
2024/03/28 02:46:30;;;;;;;10.50;5.60;;;;;;;9.21;54.82;97081.29;105487;1256;98093;-78
2024/03/28 02:48:57;;;;;;;14.70;6.20;;;;;;;9.17;54.84;97072.99;105785;1256;98047;-79
2024/03/28 02:51:24;;;;;;;11.70;5.80;;;;;;;9.12;54.88;97069.61;105526;1253;97982;-78
2024/03/28 02:53:50;;;;;;;10.60;6.30;;;;;;;9.09;55.01;97063.88;106698;1253;97978;-78
2024/03/28 02:56:17;;;;;;;10.50;6.40;;;;;;;9.05;55.05;97053.73;105802;1254;99340;-79
2024/03/28 02:58:43;;;;;;;10.20;6.20;;;;;;;9.02;54.92;97054.36;105690;1256;97981;-78
2024/03/28 03:01:10;;;;;;;9.40;5.40;;;;;;;9.01;55.22;97049.51;105435;1257;97961;-79
2024/03/28 03:03:36;;;;;;;13.20;5.80;;;;;;;9.01;55.23;97040.13;105710;1253;97958;-78
2024/03/28 03:06:03;;;;;;;9.90;6.00;;;;;;;9.00;55.36;97039.31;105668;1253;99137;-78
2024/03/28 03:08:30;;;;;;;10.60;6.50;;;;;;;9.00;55.32;97041.14;105780;1255;98105;-79
2024/03/28 03:10:56;;;;;;;9.70;5.30;;;;;;;8.96;55.38;97043.56;105925;1256;97958;-79
2024/03/28 03:13:23;;;;;;;10.70;5.80;;;;;;;8.96;55.35;97034.22;105851;1256;97886;-79
2024/03/28 03:15:55;;;;;;;11.00;5.70;;;;;;;8.97;55.39;97026.92;105420;1254;110891;-78
2024/03/28 03:18:26;;;;;;;9.80;5.40;;;;;;;8.97;55.55;97024.38;105631;1256;98058;-79
2024/03/28 03:21:04;;;;;;;10.00;5.60;;;;;;;8.96;55.32;97025.08;105576;1256;109140;-78
2024/03/28 03:23:46;;;;;;;9.40;6.10;;;;;;;8.94;55.51;97026.27;105704;1258;97985;-78
2024/03/28 03:26:30;;;;;;;12.40;5.80;;;;;;;8.94;55.69;97031.45;105753;1256;97947;-78
2024/03/28 03:34:36;;;;;;;11.40;6.50;;;;;;;8.88;55.56;97026.39;105431;1269;107624;-79
2024/03/28 03:37:07;;;;;;;13.30;6.20;;;;;;;8.86;55.60;97028.88;105443;1256;97914;-78
2024/03/28 03:39:33;;;;;;;11.40;6.20;;;;;;;8.82;55.79;97018.45;105782;1252;97972;-79
2024/03/28 03:42:00;;;;;;;9.70;6.00;;;;;;;8.80;55.98;97019.69;105638;1256;98026;-79
2024/03/28 03:44:27;;;;;;;8.50;5.90;;;;;;;8.78;55.87;97014.52;105449;1256;99314;-79
2024/03/28 03:46:53;;;;;;;11.80;6.80;;;;;;;8.76;55.94;97015.10;106137;1253;98031;-79
2024/03/28 03:49:20;;;;;;;13.20;6.40;;;;;;;8.74;56.05;97013.21;106564;1256;97962;-78
2024/03/28 03:51:46;;;;;;;11.20;6.50;;;;;;;8.74;56.23;97010.23;105433;1255;110909;-80
2024/03/28 03:54:12;;;;;;;10.30;6.40;;;;;;;8.74;56.23;97012.91;105769;1256;97968;-79
2024/03/28 03:56:39;;;;;;;11.30;6.20;;;;;;;8.74;56.33;97019.70;105637;1256;97974;-78
2024/03/28 03:59:06;;;;;;;13.20;6.90;;;;;;;8.74;56.32;97021.19;105476;1259;97904;-80
2024/03/28 04:01:32;;;;;;;16.70;7.00;;;;;;;8.72;56.34;97013.23;105692;1254;110652;-79
2024/03/28 04:03:59;;;;;;;13.00;6.90;;;;;;;8.72;56.41;97008.78;105652;1255;97975;-79
2024/03/28 04:06:26;;;;;;;11.60;6.50;;;;;;;8.71;56.38;97002.92;106774;1251;98774;-78
2024/03/28 04:08:52;;;;;;;12.70;7.00;;;;;;;8.70;56.54;97006.02;105739;1256;98049;-78
2024/03/28 04:11:19;;;;;;;;;;;;;;;8.68;56.49;97000.95;105792;1253;98896;-79
2024/03/28 04:13:45;;;;;;;10.20;5.50;;;;;;;8.64;56.55;96997.54;105472;1267;97948;-79
2024/03/28 04:16:12;;;;;;;14.50;7.00;;;;;;;8.63;56.68;96993.41;105725;1253;98047;-78
2024/03/28 04:18:38;;;;;;;12.10;6.40;;;;;;;8.62;56.51;96984.52;106799;1253;97949;-78
2024/03/28 04:21:05;;;;;;;10.80;7.00;;;;;;;8.61;56.80;96978.05;105591;1256;99344;-79
2024/03/28 04:23:31;;;;;;;9.90;6.00;;;;;;;8.62;56.82;96977.44;106103;1259;97891;-79
2024/03/28 04:25:59;;;;;;;10.70;7.00;;;;;;;8.62;56.79;96978.72;106047;1256;98038;-78
2024/03/28 04:28:26;;;;;;;15.20;7.20;;;;;;;8.60;56.83;96977.45;105738;1256;98057;-78
2024/03/28 04:30:52;;;;;;;11.10;6.60;;;;;;;8.59;56.94;96984.45;105658;1256;98570;-79
2024/03/28 04:33:19;;;;;;;14.10;7.30;;;;;;;8.59;57.21;96987.28;105711;1256;97977;-78
2024/03/28 04:35:46;;;;;;;12.70;7.00;;;;;;;8.59;56.91;96987.45;106390;1256;97953;-78
2024/03/28 04:38:13;;;;;;;15.40;7.10;;;;;;;8.58;56.81;96976.06;105776;1256;98436;-81
2024/03/28 04:40:40;;;;;;;14.30;8.10;;;;;;;8.57;57.20;96976.16;105720;1256;98147;-78
2024/03/28 04:43:09;;;;;;;14.00;7.60;;;;;;;8.57;57.17;96973.58;105763;1256;99285;-79
2024/03/28 04:45:35;;;;;;;11.10;7.10;;;;;;;8.55;57.30;96974.27;105858;1253;97978;-79
2024/03/28 04:48:02;;;;;;;15.30;7.80;;;;;;;8.55;57.29;96967.56;105462;1256;99279;-79
2024/03/28 04:50:29;;;;;;;13.00;7.60;;;;;;;8.54;57.24;96971.51;105547;1259;98041;-79
2024/03/28 04:52:55;;;;;;;12.60;7.40;;;;;;;8.52;57.37;96971.71;106559;1255;101588;-78
2024/03/28 04:55:22;;;;;;;12.80;7.70;;;;;;;8.53;57.34;96966.39;105746;1256;97962;-81
2024/03/28 04:57:51;;;;;;;16.10;8.70;;;;;;;8.51;57.40;96967.09;105444;1256;107710;-79
2024/03/28 05:00:18;;;;;;;13.50;7.80;;;;;;;8.49;57.78;96969.33;105484;1253;98053;-79
2024/03/28 05:02:49;;;;;;;14.00;8.60;;;;;;;8.51;57.56;96970.75;105428;1256;97987;-80
2024/03/28 05:05:21;;;;;;;11.60;7.30;;;;;;;8.53;57.72;96968.50;105656;1251;111262;-80
2024/03/28 05:08:07;;;;;;;14.70;7.30;;;;;;;8.52;57.74;96970.35;105759;1252;99267;-81
2024/03/28 05:11:08;;;;;;;11.10;7.10;;;;;;;8.53;57.85;96976.55;106085;1253;107857;-81
2024/03/28 05:13:38;;;;;;;16.00;8.00;;;;;;;8.55;57.89;96971.67;105835;1256;98096;-78
2024/03/28 05:16:07;;;;;;;14.90;7.70;;;;;;;8.55;57.84;96973.70;105488;1256;97965;-80
2024/03/28 05:18:36;;;;;;;13.90;8.20;;;;;;;8.55;58.01;96969.32;105723;1256;111733;-79
2024/03/28 05:21:07;;;;;;;14.00;7.50;;;;;;;8.54;58.16;96961.52;105562;1256;99283;-78
2024/03/28 05:23:40;;;;;;;13.80;8.00;;;;;;;8.53;58.08;96955.88;105684;1253;106365;-79
2024/03/28 05:26:14;;;;;;;16.40;9.00;;;;;;;8.53;58.04;96954.34;105634;1256;97942;-79
2024/03/28 05:28:47;;;;;;;16.80;7.50;;;;;;;8.52;58.10;96951.02;106192;1256;97965;-80
2024/03/28 05:31:29;;;;;;;14.10;7.90;;;;;;;8.52;58.38;96957.56;105843;1269;111269;-79
2024/03/28 05:34:02;;;;;;;13.80;8.30;;;;;;;8.53;58.31;96956.30;106194;1252;98708;-78
2024/03/28 05:37:03;;;;;;;19.00;7.70;;;;;;;8.51;58.47;96946.56;106245;1256;107840;-79
2024/03/28 05:39:46;;;;;;;17.40;7.70;;;;;;;8.52;58.49;96948.06;105623;1256;98039;-78
2024/03/28 05:42:18;;;;;;;16.90;8.20;;;;;;;8.52;58.46;96944.18;105590;1256;97972;-78
2024/03/28 05:44:50;;;;;;;12.50;7.30;;;;;;;8.54;58.61;96945.90;105952;1255;109616;-79
2024/03/28 05:47:26;;;;;;;16.80;9.00;;;;;;;8.55;58.47;96939.64;105725;1253;97962;-80
2024/03/28 05:49:59;;;;;;;14.70;8.10;;;;;;;8.57;58.57;96936.97;105487;1256;107494;-80
2024/03/28 05:52:32;;;;;;;13.60;8.10;;;;;;;8.58;58.66;96931.35;105828;1254;97945;-79
2024/03/28 05:55:05;;;;;;;14.80;8.60;;;;;;;8.60;58.70;96935.57;106261;1255;97955;-78
2024/03/28 05:57:32;;;;;;;19.30;8.30;;;;;;;8.63;58.93;96939.94;105528;1253;99453;-77
2024/03/28 05:59:59;;;;;;;16.60;8.30;;;;;;;8.64;58.92;96931.17;105384;1256;98422;-81
2024/03/28 06:02:26;;;;;;;14.10;7.50;;;;;;;8.67;58.83;96930.64;105729;1256;98085;-79
2024/03/28 06:04:59;;;;;;;14.00;7.90;;;;;;;8.69;58.80;96930.46;105849;1256;97962;-78
2024/03/28 06:07:28;;;;;;;14.00;7.50;;;;;;;8.71;58.93;96931.90;105693;1255;98025;-78
2024/03/28 06:09:55;;;;;;;14.30;8.40;;;;;;;8.73;59.22;96939.68;105858;1256;97963;-78
2024/03/28 06:12:22;;;;;;;16.70;9.20;;;;;;;8.75;59.05;96936.80;105734;1254;97949;-80
2024/03/28 06:14:49;;;;;;;15.30;9.40;;;;;;;8.76;59.09;96939.30;105639;1253;98892;-78
2024/03/28 06:17:15;;;;;;;15.40;8.80;;;;;;;8.79;59.16;96941.86;105693;1256;98475;-78
2024/03/28 06:19:45;;;;;;;13.20;8.40;;;;;;;8.81;59.11;96948.41;105728;1263;97965;-78
2024/03/28 06:22:13;;;;;;;14.90;8.30;;;;;;;8.83;59.29;96949.80;105638;1256;97951;-78
2024/03/28 06:24:39;;;;;;;15.40;8.50;;;;;;;8.85;59.29;96954.05;105728;1256;98049;-78
2024/03/28 06:27:06;;;;;;;13.60;8.70;;;;;;;8.86;59.33;96956.17;105391;1257;98562;-76
2024/03/28 06:29:39;;;;;;;10.00;7.20;;;;;;;8.88;59.50;96955.80;105579;1256;97967;-77
2024/03/28 06:32:13;;;;;;;13.10;8.50;;;;;;;8.91;59.30;96956.72;105583;1256;111570;-77
2024/03/28 06:34:40;;;;;;;17.50;8.80;;;;;;;8.93;59.54;96955.13;105449;1264;97935;-77
2024/03/28 06:37:06;;;;;;;13.90;8.20;;;;;;;8.97;59.64;96961.86;105208;1253;98041;-77
2024/03/28 06:39:33;;;;;;;14.90;9.90;;;;;;;8.99;59.35;96949.75;105433;1264;98014;-77
2024/03/28 06:42:00;;;;;;;15.00;8.60;;;;;;;9.00;59.68;96950.28;105125;1256;99291;-76
2024/03/28 06:44:26;;;;;;;15.10;8.80;;;;;;;9.03;59.73;96960.92;105578;1256;99636;-76
2024/03/28 06:46:53;;;;;;;16.00;8.50;;;;;;;9.06;59.82;96964.32;105126;1254;107083;-76
2024/03/28 06:49:20;;;;;;;14.90;8.40;;;;;;;9.09;59.93;96967.34;105404;1256;97958;-77
2024/03/28 06:51:46;;;;;;;16.50;9.20;;;;;;;9.13;59.92;96963.45;105382;1256;98445;-77
2024/03/28 06:54:13;;;;;;;13.60;8.20;;;;;;;9.16;59.79;96965.92;105268;1267;98346;-75
2024/03/28 06:56:39;;;;;;;16.30;10.10;;;;;;;9.19;59.89;96965.78;105267;1254;98208;-76
2024/03/28 06:59:06;;;;;;;16.00;8.10;;;;;;;9.23;60.16;96971.81;105542;1255;97919;-75
2024/03/28 07:01:33;;;;;;;16.30;8.30;;;;;;;9.28;60.28;96977.02;105640;1256;97984;-76
2024/03/28 07:03:59;;;;;;;16.20;7.70;;;;;;;9.32;60.21;96981.84;105172;1265;98062;-76
2024/03/28 07:06:26;;;;;;;13.00;8.30;;;;;;;9.37;60.28;96977.32;105440;1256;98914;-76
2024/03/28 07:08:52;;;;;;;20.20;8.20;;;;;;;9.41;60.22;96979.59;105183;1252;97968;-76
2024/03/28 07:11:19;;;;;;;14.20;7.90;;;;;;;9.44;60.23;96984.92;105175;1256;98302;-77
2024/03/28 07:13:46;;;;;;;12.90;7.30;;;;;;;9.47;60.13;96976.28;105479;1256;97979;-76
2024/03/28 07:16:17;;;;;;;14.00;8.30;;;;;;;9.52;60.32;96984.68;105339;1255;99291;-76
2024/03/28 07:18:44;;;;;;;14.80;7.90;;;;;;;9.55;60.28;96980.80;105246;1256;107639;-76
2024/03/28 07:21:11;;;;;;;13.10;7.70;;;;;;;9.61;60.26;96969.05;105387;1267;98880;-75
2024/03/28 07:23:42;;;;;;;11.70;7.90;;;;;;;9.65;60.42;96956.26;105081;1259;97977;-75
2024/03/28 07:26:08;;;;;;;13.40;7.60;;;;;;;9.73;60.51;96961.14;105352;1257;112111;-76
2024/03/28 07:28:35;;;;;;;18.70;7.30;;;;;;;9.87;60.62;96973.79;105171;1260;98042;-76
2024/03/28 07:31:04;;;;;;;19.10;6.60;;;;;;;10.16;60.85;96975.48;105078;1256;108305;-75
2024/03/28 07:33:31;;;;;;;20.30;6.30;;;;;;;10.61;61.17;96969.52;105479;1257;97952;-77
2024/03/28 07:35:58;;;;;;;24.40;6.70;;;;;;;11.06;61.28;96971.54;105419;1256;97954;-77
2024/03/28 07:38:24;;;;;;;19.50;6.30;;;;;;;11.35;61.08;96969.05;105344;1256;98008;-76
2024/03/28 07:40:51;;;;;;;23.50;6.40;;;;;;;11.61;61.16;96968.44;105576;1256;98042;-75
2024/03/28 07:43:18;;;;;;;21.30;6.30;;;;;;;11.85;61.15;96960.22;105136;1260;99291;-77
2024/03/28 07:45:44;;;;;;;20.70;6.30;;;;;;;12.04;61.04;96955.71;105440;1252;98013;-77
2024/03/28 07:48:12;;;;;;;23.90;6.60;;;;;;;12.22;61.08;96957.73;105251;1256;97936;-77
2024/03/28 07:50:39;;;;;;;17.50;5.60;;;;;;;12.38;61.25;96956.12;105433;1256;97973;-76
2024/03/28 07:53:06;;;;;;;19.60;6.40;;;;;;;12.53;61.15;96962.48;105513;1256;98079;-77
2024/03/28 07:55:33;;;;;;;13.50;4.80;;;;;;;12.65;61.09;96967.33;105241;1256;98004;-77
2024/03/28 07:58:00;;;;;;;14.40;5.10;;;;;;;12.74;61.07;96970.16;105202;1259;97967;-77
2024/03/28 08:00:30;;;;;;;14.90;4.60;;;;;;;12.80;61.04;96970.16;105359;1266;97952;-76
2024/03/28 08:02:57;;;;;;;15.60;5.30;;;;;;;12.85;61.09;96966.95;105375;1256;98073;-77
2024/03/28 08:05:24;;;;;;;11.10;4.40;;;;;;;12.90;61.02;96961.29;105337;1257;97979;-77
2024/03/28 08:07:51;;;;;;;19.50;5.10;;;;;;;12.97;61.06;96968.48;105503;1262;99322;-78
2024/03/28 08:10:18;;;;;;;12.80;3.80;;;;;;;13.07;61.08;96963.77;105358;1257;99284;-78
2024/03/28 08:12:44;;;;;;;15.80;4.20;;;;;;;13.13;61.06;96952.90;105492;1256;97888;-75
2024/03/28 08:15:11;;;;;;;10.40;3.80;;;;;;;13.16;61.13;96948.71;105497;1257;97974;-75
2024/03/28 08:17:38;;;;;;;9.40;3.50;;;;;;;13.20;61.12;96940.83;105360;1257;98097;-77
2024/03/28 08:20:15;;;;;;;15.30;4.50;;;;;;;13.22;61.10;96930.97;105420;1253;97920;-77
2024/03/28 08:22:43;;;;;;;13.10;3.60;;;;;;;13.22;61.05;96915.96;105448;1256;110899;-76
2024/03/28 08:25:10;;;;;;;12.90;4.00;;;;;;;13.23;61.13;96913.84;105488;1261;97976;-77
2024/03/28 08:27:38;;;;;;;12.10;4.10;;;;;;;13.25;61.25;96920.16;105361;1254;98041;-76
2024/03/28 08:30:08;;;;;;;14.60;4.00;;;;;;;13.29;61.26;96917.08;105530;1267;97986;-76
2024/03/28 08:32:35;;;;;;;14.20;4.30;;;;;;;13.30;61.24;96923.10;105123;1259;99608;-77
2024/03/28 08:35:02;;;;;;;9.20;3.80;;;;;;;13.33;61.45;96918.30;105651;1255;97973;-78
2024/03/28 08:37:29;;;;;;;10.00;3.20;;;;;;;13.35;61.38;96923.88;105635;1260;97958;-77
2024/03/28 08:39:58;;;;;;;8.90;2.90;;;;;;;13.36;61.46;96926.73;105427;1252;107648;-77
2024/03/28 08:42:24;;;;;;;11.70;3.90;;;;;;;13.35;61.55;96922.33;105462;1257;98631;-78
2024/03/28 08:48:02;;;;;;;8.20;3.00;;;;;;;13.43;61.64;96921.98;102221;1292;636266;-78
2024/03/28 08:50:29;;;;;;;7.80;4.10;;;;;;;13.45;61.67;96924.96;104521;1266;95385;-78
2024/03/28 08:52:57;;;;;;;11.10;3.40;;;;;;;13.50;61.77;96927.38;104644;1266;95395;-78
2024/03/28 08:55:25;;;;;;;5.80;2.70;;;;;;;13.62;61.88;96925.25;104607;1266;108288;-76
2024/03/28 08:57:53;;;;;;;8.00;2.90;;;;;;;13.79;62.04;96925.36;104828;1266;95777;-78
2024/03/28 09:00:25;;;;;;;6.30;2.50;;;;;;;13.94;62.10;96928.27;104618;1267;107478;-80
2024/03/28 09:02:53;;;;;;;8.40;2.80;;;;;;;14.05;62.01;96933.54;104332;1269;210544;-76
2024/03/28 09:05:21;;;;;;;9.70;2.40;;;;;;;14.11;62.07;96939.87;104831;1263;95279;-77
2024/03/28 09:07:49;;;;;;;10.40;3.80;;;;;;;14.17;62.04;96952.04;104989;1264;108140;-78
2024/03/28 09:10:17;;;;;;;6.60;2.00;;;;;;;14.22;62.17;96955.76;105071;1263;95289;-78
2024/03/28 09:12:47;;;;;;;8.10;2.40;;;;;;;14.26;62.17;96965.88;105054;1275;107270;-77
2024/03/28 09:15:15;;;;;;;9.30;2.30;;;;;;;14.34;62.29;96974.81;104761;1260;97643;-78
2024/03/28 09:17:45;;;;;;;7.20;2.20;;;;;;;14.40;62.28;96972.84;104716;1266;96616;-76
2024/03/28 09:20:13;;;;;;;11.30;3.20;;;;;;;14.44;62.23;96961.38;105075;1260;109919;-77
2024/03/28 09:22:41;;;;;;;7.10;3.20;;;;;;;14.43;62.28;96971.73;105024;1275;96684;-78
2024/03/28 09:25:09;;;;;;;6.20;2.20;;;;;;;14.41;62.32;96961.45;104793;1258;108424;-77
2024/03/28 09:27:37;;;;;;;5.20;2.10;;;;;;;14.38;62.24;96965.91;105276;1261;98025;-77
2024/03/28 09:30:11;;;;;;;4.90;1.70;;;;;;;14.35;62.25;96961.70;105070;1263;97450;-77
2024/03/28 09:32:38;;;;;;;6.50;2.20;;;;;;;14.33;62.24;96953.88;105137;1262;109891;-77
2024/03/28 09:35:08;;;;;;;8.40;2.10;;;;;;;14.30;62.26;96950.83;104917;1262;96616;-77
2024/03/28 09:37:36;;;;;;;7.30;2.20;;;;;;;14.24;62.19;96959.94;105040;1261;107050;-77
2024/03/28 09:40:08;;;;;;;4.90;1.90;;;;;;;14.19;62.24;96959.30;104786;1262;97843;-76
2024/03/28 09:42:37;;;;;;;5.70;2.10;;;;;;;14.13;62.24;96967.48;104861;1263;96780;-77
2024/03/28 09:45:06;;;;;;;4.10;2.10;;;;;;;14.12;62.37;96968.50;105100;1261;109911;-77
2024/03/28 09:47:34;;;;;;;7.70;2.30;;;;;;;14.12;62.25;96974.71;105353;1260;96527;-77
2024/03/28 09:50:07;;;;;;;4.00;1.80;;;;;;;14.13;62.28;96973.66;105105;1263;107600;-77
2024/03/28 09:52:38;;;;;;;4.50;2.10;;;;;;;14.16;62.33;96976.45;105035;1262;96696;-79
2024/03/28 09:55:07;;;;;;;6.20;2.00;;;;;;;14.15;62.38;96981.14;104931;1261;97162;-76
2024/03/28 09:57:35;;;;;;;7.20;2.10;;;;;;;14.15;62.44;96984.17;105055;1262;108577;-76
2024/03/28 10:00:05;;;;;;;3.50;2.00;;;;;;;14.14;62.43;96991.27;105210;1260;96614;-76
2024/03/28 10:02:53;;;;;;;5.60;1.80;;;;;;;14.15;62.40;96997.41;105235;1259;107715;-76
2024/03/28 10:05:23;;;;;;;;;;;;;;;14.14;62.42;97001.80;105327;1256;97915;-79
2024/03/28 10:07:51;;;;;;;3.00;1.60;;;;;;;14.10;62.52;96998.29;105302;1259;96708;-78
2024/03/28 10:10:26;;;;;;;5.50;1.60;;;;;;;14.05;62.47;97009.54;105396;1256;109906;-76
2024/03/28 10:12:55;;;;;;;7.70;1.80;;;;;;;14.00;62.46;97008.78;105634;1254;96619;-78
2024/03/28 10:15:24;;;;;;;3.50;1.60;;;;;;;13.94;62.54;97012.88;105119;1259;108063;-77
2024/03/28 10:18:07;;;;;;;10.30;2.30;;;;;;;13.86;62.46;97027.02;105623;1256;97383;-78
2024/03/28 10:20:37;;;;;;;4.00;1.70;;;;;;;13.78;62.59;97022.14;105173;1259;96605;-77
2024/03/28 10:23:09;;;;;;;8.40;2.20;;;;;;;13.73;62.50;97031.94;105175;1257;109478;-77
2024/03/28 10:25:36;;;;;;;7.40;2.10;;;;;;;13.68;62.49;97036.39;105396;1256;97964;-75
2024/03/28 10:28:07;;;;;;;4.50;1.90;;;;;;;13.63;62.56;97041.48;105146;1256;107351;-77
2024/03/28 10:30:36;;;;;;;5.10;2.50;;;;;;;13.56;62.63;97038.53;105503;1257;96628;-78
2024/03/28 10:33:10;;;;;;;6.70;2.40;;;;;;;13.50;62.65;97026.77;105374;1256;96636;-75
2024/03/28 10:35:42;;;;;;;7.10;2.60;;;;;;;13.45;62.72;97017.20;105402;1256;109235;-76
2024/03/28 10:38:10;;;;;;;6.50;2.50;;;;;;;13.41;62.70;97012.45;105312;1257;97833;-76
2024/03/28 10:40:42;;;;;;;4.80;2.30;;;;;;;13.38;62.70;97024.34;105487;1254;108549;-76
2024/03/28 10:43:14;;;;;;;6.60;2.90;;;;;;;13.37;62.73;97028.29;105586;1257;96571;-76
2024/03/28 10:45:45;;;;;;;7.50;3.10;;;;;;;13.33;62.77;97031.55;105306;1256;96646;-77
2024/03/28 10:48:20;;;;;;;7.20;3.20;;;;;;;13.29;62.74;97023.67;105314;1254;109938;-77
2024/03/28 10:51:15;;;;;;;6.30;2.70;;;;;;;13.25;62.73;97012.52;105354;1269;96702;-77
2024/03/28 10:54:08;;;;;;;8.80;5.10;;;;;;;13.20;62.84;97001.20;105520;1256;107186;-76
2024/03/28 10:56:47;;;;;;;6.30;2.90;;;;;;;13.18;62.86;96998.27;105460;1254;97096;-76
2024/03/28 10:59:17;;;;;;;6.20;2.50;;;;;;;13.17;62.86;96997.36;105624;1257;97534;-77
2024/03/28 11:03:35;;;;;;;4.50;2.30;;;;;;;13.18;62.91;97001.32;102495;1292;635937;-76
2024/03/28 11:06:05;;;;;;;6.80;2.70;;;;;;;13.17;62.92;97009.89;104551;1273;95642;-77
2024/03/28 11:08:33;;;;;;;6.50;2.60;;;;;;;13.19;62.70;97013.61;104615;1270;95280;-77
2024/03/28 11:11:02;;;;;;;4.60;2.30;;;;;;;13.21;62.78;97024.71;104609;1268;108672;-77
2024/03/28 11:13:30;;;;;;;4.50;2.90;;;;;;;13.23;62.74;97034.84;104884;1265;95403;-77
2024/03/28 11:16:06;;;;;;;9.50;2.80;;;;;;;13.25;62.64;97032.64;104776;1264;107633;-77
2024/03/28 11:18:35;;;;;;;6.00;2.90;;;;;;;13.27;62.37;97030.88;104921;1263;95258;-76
2024/03/28 11:21:03;;;;;;;7.70;3.50;;;;;;;13.31;62.39;97041.61;105279;1257;95238;-75
2024/03/28 11:23:32;;;;;;;5.40;3.20;;;;;;;13.33;62.42;97041.66;104929;1263;108468;-79
2024/03/28 11:26:03;;;;;;;5.00;2.70;;;;;;;13.36;62.29;97037.77;104798;1260;95362;-77
2024/03/28 11:28:32;;;;;;;5.50;2.20;;;;;;;13.40;62.31;97025.94;105019;1263;107091;-77
2024/03/28 11:31:22;;;;;;;5.60;2.40;;;;;;;13.45;62.36;97010.11;105673;1262;96625;-80
2024/03/28 11:34:16;;;;;;;;;;;;;;;13.51;62.22;97001.17;105418;1259;96697;-79
2024/03/28 11:36:53;;;;;;;5.60;2.80;;;;;;;13.53;62.03;96985.27;105422;1259;110394;-79
2024/03/28 11:39:36;;;;;;;6.40;3.10;;;;;;;13.58;61.86;96983.30;105490;1259;97993;-80
2024/03/28 11:42:21;;;;;;;5.00;2.10;;;;;;;13.64;61.85;96968.14;105588;1260;105841;-78
2024/03/28 11:45:46;;;;;;;4.30;3.00;;;;;;;13.69;61.64;96973.39;105505;1257;96718;-79